sensor_id;sensor_type;location;lat;lon;timestamp;pressure;altitude;pressure_sealevel;temperature;humidity
11448;BME280;43755;49.736;8.734;2023-08-08T00:02:01;97946.28;;;13.15;100.00
11448;BME280;43755;49.736;8.734;2023-08-08T00:04:02;97945.34;;;13.16;100.00
11448;BME280;43755;49.736;8.734;2023-08-08T00:06:04;97950.75;;;13.15;100.00
11448;BME280;43755;49.736;8.734;2023-08-08T00:08:07;97953.41;;;13.15;100.00
11448;BME280;43755;49.736;8.734;2023-08-08T00:10:09;97950.41;;;13.21;100.00
11448;BME280;43755;49.736;8.734;2023-08-08T00:12:11;97951.44;;;13.18;100.00
11448;BME280;43755;49.736;8.734;2023-08-08T00:14:12;97954.97;;;13.19;100.00
11448;BME280;43755;49.736;8.734;2023-08-08T00:16:14;97954.72;;;13.23;100.00
11448;BME280;43755;49.736;8.734;2023-08-08T00:18:15;97951.53;;;13.17;100.00
11448;BME280;43755;49.736;8.734;2023-08-08T00:20:16;97943.16;;;13.24;100.00
11448;BME280;43755;49.736;8.734;2023-08-08T00:22:18;97953.00;;;13.22;100.00
11448;BME280;43755;49.736;8.734;2023-08-08T00:24:21;97945.09;;;13.21;100.00
11448;BME280;43755;49.736;8.734;2023-08-08T00:26:22;97946.28;;;13.15;100.00
11448;BME280;43755;49.736;8.734;2023-08-08T00:28:23;97946.28;;;13.15;100.00
11448;BME280;43755;49.736;8.734;2023-08-08T00:30:25;97948.31;;;13.10;100.00
11448;BME280;43755;49.736;8.734;2023-08-08T00:32:26;97949.56;;;13.03;100.00
11448;BME280;43755;49.736;8.734;2023-08-08T00:34:28;97940.44;;;12.91;100.00
11448;BME280;43755;49.736;8.734;2023-08-08T00:36:29;97939.91;;;12.85;100.00
11448;BME280;43755;49.736;8.734;2023-08-08T00:38:30;97928.38;;;12.86;100.00
11448;BME280;43755;49.736;8.734;2023-08-08T00:40:33;97932.28;;;12.79;100.00
11448;BME280;43755;49.736;8.734;2023-08-08T00:42:34;97934.41;;;12.72;100.00
11448;BME280;43755;49.736;8.734;2023-08-08T00:44:36;97930.13;;;12.69;100.00
11448;BME280;43755;49.736;8.734;2023-08-08T00:46:37;97935.13;;;12.58;100.00
11448;BME280;43755;49.736;8.734;2023-08-08T00:48:38;97929.81;;;12.58;100.00
11448;BME280;43755;49.736;8.734;2023-08-08T00:50:42;97927.47;;;12.52;100.00
11448;BME280;43755;49.736;8.734;2023-08-08T00:52:44;97932.19;;;12.47;100.00
11448;BME280;43755;49.736;8.734;2023-08-08T00:54:45;97929.03;;;12.39;100.00
11448;BME280;43755;49.736;8.734;2023-08-08T00:56:48;97931.25;;;12.31;100.00
11448;BME280;43755;49.736;8.734;2023-08-08T00:58:49;97926.94;;;12.28;100.00
11448;BME280;43755;49.736;8.734;2023-08-08T01:00:51;97929.13;;;12.20;100.00
11448;BME280;43755;49.736;8.734;2023-08-08T01:02:54;97927.38;;;12.19;100.00
11448;BME280;43755;49.736;8.734;2023-08-08T01:04:56;97931.75;;;12.20;100.00
11448;BME280;43755;49.736;8.734;2023-08-08T01:07:01;97932.78;;;12.18;100.00
11448;BME280;43755;49.736;8.734;2023-08-08T01:09:09;97933.88;;;12.14;100.00
11448;BME280;43755;49.736;8.734;2023-08-08T01:11:14;97937.69;;;12.08;100.00
11448;BME280;43755;49.736;8.734;2023-08-08T01:13:20;97938.53;;;12.09;100.00
11448;BME280;43755;49.736;8.734;2023-08-08T01:15:23;97929.03;;;12.05;100.00
11448;BME280;43755;49.736;8.734;2023-08-08T01:17:25;97934.41;;;12.03;100.00
11448;BME280;43755;49.736;8.734;2023-08-08T01:19:28;97926.50;;;12.02;100.00
11448;BME280;43755;49.736;8.734;2023-08-08T01:21:30;97926.38;;;12.05;100.00
11448;BME280;43755;49.736;8.734;2023-08-08T01:23:42;97926.00;;;12.12;100.00
11448;BME280;43755;49.736;8.734;2023-08-08T01:25:46;97920.22;;;12.04;100.00
11448;BME280;43755;49.736;8.734;2023-08-08T01:27:47;97917.56;;;12.04;100.00
11448;BME280;43755;49.736;8.734;2023-08-08T01:29:49;97914.84;;;12.06;100.00
11448;BME280;43755;49.736;8.734;2023-08-08T01:31:50;97915.91;;;12.02;100.00
11448;BME280;43755;49.736;8.734;2023-08-08T01:33:52;97921.31;;;12.00;100.00
11448;BME280;43755;49.736;8.734;2023-08-08T01:35:54;97911.41;;;12.04;100.00
11448;BME280;43755;49.736;8.734;2023-08-08T01:38:00;97915.22;;;11.98;100.00
11448;BME280;43755;49.736;8.734;2023-08-08T01:40:08;97918.03;;;11.95;100.00
11448;BME280;43755;49.736;8.734;2023-08-08T01:42:12;97923.97;;;12.00;100.00
11448;BME280;43755;49.736;8.734;2023-08-08T01:44:15;97913.38;;;12.00;100.00
11448;BME280;43755;49.736;8.734;2023-08-08T01:46:18;97915.09;;;12.01;100.00
11448;BME280;43755;49.736;8.734;2023-08-08T01:48:19;97918.78;;;11.97;100.00
11448;BME280;43755;49.736;8.734;2023-08-08T01:50:20;97919.59;;;11.99;100.00
11448;BME280;43755;49.736;8.734;2023-08-08T01:52:21;97924.97;;;11.98;100.00
11448;BME280;43755;49.736;8.734;2023-08-08T01:54:23;97920.59;;;11.97;100.00
11448;BME280;43755;49.736;8.734;2023-08-08T01:56:24;97914.22;;;12.01;100.00
11448;BME280;43755;49.736;8.734;2023-08-08T01:58:27;97914.13;;;12.02;100.00
11448;BME280;43755;49.736;8.734;2023-08-08T02:00:29;97912.50;;;12.00;100.00
11448;BME280;43755;49.736;8.734;2023-08-08T02:02:30;97914.53;;;11.95;100.00
11448;BME280;43755;49.736;8.734;2023-08-08T02:04:31;97904.78;;;11.95;100.00
11448;BME280;43755;49.736;8.734;2023-08-08T02:06:33;97917.25;;;11.93;100.00
11448;BME280;43755;49.736;8.734;2023-08-08T02:08:34;97908.91;;;11.83;100.00
11448;BME280;43755;49.736;8.734;2023-08-08T02:10:35;97906.63;;;11.76;100.00
11448;BME280;43755;49.736;8.734;2023-08-08T02:12:37;97910.06;;;11.78;100.00
11448;BME280;43755;49.736;8.734;2023-08-08T02:14:40;97906.69;;;11.74;100.00
11448;BME280;43755;49.736;8.734;2023-08-08T02:16:41;97915.63;;;11.72;100.00
11448;BME280;43755;49.736;8.734;2023-08-08T02:18:43;97912.78;;;11.76;100.00
11448;BME280;43755;49.736;8.734;2023-08-08T02:20:44;97913.78;;;11.74;100.00
11448;BME280;43755;49.736;8.734;2023-08-08T02:22:46;97912.78;;;11.76;100.00
11448;BME280;43755;49.736;8.734;2023-08-08T02:24:47;97907.41;;;11.78;100.00
11448;BME280;43755;49.736;8.734;2023-08-08T02:26:48;97900.09;;;11.83;100.00
11448;BME280;43755;49.736;8.734;2023-08-08T02:28:50;97899.13;;;11.84;100.00
11448;BME280;43755;49.736;8.734;2023-08-08T02:30:53;97902.63;;;11.84;100.00
11448;BME280;43755;49.736;8.734;2023-08-08T02:32:54;97900.72;;;11.88;100.00
11448;BME280;43755;49.736;8.734;2023-08-08T02:34:55;97898.69;;;11.93;100.00
11448;BME280;43755;49.736;8.734;2023-08-08T02:36:57;97893.31;;;11.95;100.00
11448;BME280;43755;49.736;8.734;2023-08-08T02:38:59;97889.94;;;11.91;100.00
11448;BME280;43755;49.736;8.734;2023-08-08T02:41:00;97891.72;;;11.90;100.00
11448;BME280;43755;49.736;8.734;2023-08-08T02:43:02;97898.69;;;11.93;100.00
11448;BME280;43755;49.736;8.734;2023-08-08T02:45:04;97898.69;;;11.93;100.00
11448;BME280;43755;49.736;8.734;2023-08-08T02:47:07;97894.88;;;11.99;100.00
11448;BME280;43755;49.736;8.734;2023-08-08T02:49:08;97893.78;;;12.03;100.00
11448;BME280;43755;49.736;8.734;2023-08-08T02:51:10;97888.41;;;12.04;100.00
11448;BME280;43755;49.736;8.734;2023-08-08T02:53:11;97888.72;;;11.98;100.00
11448;BME280;43755;49.736;8.734;2023-08-08T02:55:13;97892.81;;;11.86;100.00
11448;BME280;43755;49.736;8.734;2023-08-08T02:57:14;97885.75;;;11.87;100.00
11448;BME280;43755;49.736;8.734;2023-08-08T02:59:16;97883.16;;;11.85;100.00
11448;BME280;43755;49.736;8.734;2023-08-08T03:01:17;97885.97;;;11.82;100.00
11448;BME280;43755;49.736;8.734;2023-08-08T03:03:20;97881.91;;;11.75;100.00
11448;BME280;43755;49.736;8.734;2023-08-08T03:05:22;97879.34;;;11.72;100.00
11448;BME280;43755;49.736;8.734;2023-08-08T03:07:23;97880.69;;;11.64;100.00
11448;BME280;43755;49.736;8.734;2023-08-08T03:09:24;97878.16;;;11.61;100.00
11448;BME280;43755;49.736;8.734;2023-08-08T03:11:26;97882.47;;;11.63;100.00
11448;BME280;43755;49.736;8.734;2023-08-08T03:13:27;97882.53;;;11.62;100.00
11448;BME280;43755;49.736;8.734;2023-08-08T03:15:29;97889.72;;;11.60;100.00
11448;BME280;43755;49.736;8.734;2023-08-08T03:17:31;97884.78;;;11.52;100.00
11448;BME280;43755;49.736;8.734;2023-08-08T03:19:33;97879.41;;;11.54;100.00
11448;BME280;43755;49.736;8.734;2023-08-08T03:21:35;97880.41;;;11.51;100.00
11448;BME280;43755;49.736;8.734;2023-08-08T03:23:36;97877.63;;;11.54;100.00
11448;BME280;43755;49.736;8.734;2023-08-08T03:25:38;97879.41;;;11.54;100.00
11448;BME280;43755;49.736;8.734;2023-08-08T03:27:38;97875.81;;;11.55;100.00
11448;BME280;43755;49.736;8.734;2023-08-08T03:29:39;97876.53;;;11.58;100.00
11448;BME280;43755;49.736;8.734;2023-08-08T03:31:41;97876.66;;;11.55;100.00
11448;BME280;43755;49.736;8.734;2023-08-08T03:33:42;97878.63;;;11.52;100.00
11448;BME280;43755;49.736;8.734;2023-08-08T03:35:45;97883.41;;;11.43;100.00
11448;BME280;43755;49.736;8.734;2023-08-08T03:37:47;97887.31;;;11.36;100.00
11448;BME280;43755;49.736;8.734;2023-08-08T03:39:48;97891.19;;;11.29;100.00
11448;BME280;43755;49.736;8.734;2023-08-08T03:41:48;97894.97;;;11.24;100.00
11448;BME280;43755;49.736;8.734;2023-08-08T03:43:50;97883.66;;;11.20;100.00
11448;BME280;43755;49.736;8.734;2023-08-08T03:45:51;97885.81;;;11.31;100.00
11448;BME280;43755;49.736;8.734;2023-08-08T03:47:52;97893.91;;;11.28;100.00
11448;BME280;43755;49.736;8.734;2023-08-08T03:49:55;97892.91;;;11.30;100.00
11448;BME280;43755;49.736;8.734;2023-08-08T03:51:58;97882.44;;;11.27;100.00
11448;BME280;43755;49.736;8.734;2023-08-08T03:54:00;97888.75;;;11.25;100.00
11448;BME280;43755;49.736;8.734;2023-08-08T03:56:03;97886.16;;;11.23;100.00
11448;BME280;43755;49.736;8.734;2023-08-08T03:58:04;97883.31;;;11.28;100.00
11448;BME280;43755;49.736;8.734;2023-08-08T04:00:07;97878.66;;;11.33;100.00
11448;BME280;43755;49.736;8.734;2023-08-08T04:02:09;97884.09;;;11.30;100.00
11448;BME280;43755;49.736;8.734;2023-08-08T04:04:10;97874.91;;;11.37;100.00
11448;BME280;43755;49.736;8.734;2023-08-08T04:06:14;97883.94;;;11.33;100.00
11448;BME280;43755;49.736;8.734;2023-08-08T04:08:17;97894.69;;;11.30;100.00
11448;BME280;43755;49.736;8.734;2023-08-08T04:10:18;97885.31;;;11.23;100.00
11448;BME280;43755;49.736;8.734;2023-08-08T04:12:20;97888.88;;;11.22;100.00
11448;BME280;43755;49.736;8.734;2023-08-08T04:14:21;97881.88;;;11.21;100.00
11448;BME280;43755;49.736;8.734;2023-08-08T04:16:22;97887.09;;;11.22;100.00
11448;BME280;43755;49.736;8.734;2023-08-08T04:18:24;97878.06;;;11.26;100.00
11448;BME280;43755;49.736;8.734;2023-08-08T04:20:25;97882.22;;;11.32;100.00
11448;BME280;43755;49.736;8.734;2023-08-08T04:22:27;97876.72;;;11.36;100.00
11448;BME280;43755;49.736;8.734;2023-08-08T04:24:28;97877.72;;;11.34;100.00
11448;BME280;43755;49.736;8.734;2023-08-08T04:26:30;97878.41;;;11.37;100.00
11448;BME280;43755;49.736;8.734;2023-08-08T04:28:32;97879.09;;;11.42;100.00
11448;BME280;43755;49.736;8.734;2023-08-08T04:30:33;97877.50;;;11.38;100.00
11448;BME280;43755;49.736;8.734;2023-08-08T04:32:35;97881.06;;;11.37;100.00
11448;BME280;43755;49.736;8.734;2023-08-08T04:34:36;97886.28;;;11.39;100.00
11448;BME280;43755;49.736;8.734;2023-08-08T04:36:38;97889.00;;;11.37;100.00
11448;BME280;43755;49.736;8.734;2023-08-08T04:38:39;97886.34;;;11.37;100.00
11448;BME280;43755;49.736;8.734;2023-08-08T04:40:42;97889.16;;;11.53;100.00
11448;BME280;43755;49.736;8.734;2023-08-08T04:42:43;97885.56;;;11.54;100.00
11448;BME280;43755;49.736;8.734;2023-08-08T04:44:45;97888.91;;;11.58;100.00
11448;BME280;43755;49.736;8.734;2023-08-08T04:46:46;97891.22;;;11.65;100.00
11448;BME280;43755;49.736;8.734;2023-08-08T04:48:47;97883.97;;;11.69;100.00
11448;BME280;43755;49.736;8.734;2023-08-08T04:50:49;97895.41;;;11.69;100.00
11448;BME280;43755;49.736;8.734;2023-08-08T04:52:50;97897.38;;;11.66;100.00
11448;BME280;43755;49.736;8.734;2023-08-08T04:54:52;97890.13;;;11.69;100.00
11448;BME280;43755;49.736;8.734;2023-08-08T04:56:54;97896.13;;;11.73;100.00
11448;BME280;43755;49.736;8.734;2023-08-08T04:58:56;97903.03;;;11.77;100.00
11448;BME280;43755;49.736;8.734;2023-08-08T05:00:57;97886.22;;;11.78;100.00
11448;BME280;43755;49.736;8.734;2023-08-08T05:02:59;97890.41;;;11.82;100.00
11448;BME280;43755;49.736;8.734;2023-08-08T05:05:00;97885.19;;;11.80;100.00
11448;BME280;43755;49.736;8.734;2023-08-08T05:07:02;97885.81;;;11.85;100.00
11448;BME280;43755;49.736;8.734;2023-08-08T05:09:03;97889.88;;;11.93;100.00
11448;BME280;43755;49.736;8.734;2023-08-08T05:11:05;97883.78;;;11.90;100.00
11448;BME280;43755;49.736;8.734;2023-08-08T05:13:08;97888.72;;;11.98;100.00
11448;BME280;43755;49.736;8.734;2023-08-08T05:15:09;97886.69;;;12.03;100.00
11448;BME280;43755;49.736;8.734;2023-08-08T05:17:11;97883.47;;;12.14;100.00
11448;BME280;43755;49.736;8.734;2023-08-08T05:19:12;97887.94;;;12.30;100.00
11448;BME280;43755;49.736;8.734;2023-08-08T05:21:14;97892.75;;;12.40;100.00
11448;BME280;43755;49.736;8.734;2023-08-08T05:23:15;97883.88;;;12.41;100.00
11448;BME280;43755;49.736;8.734;2023-08-08T05:25:16;97876.69;;;12.43;100.00
11448;BME280;43755;49.736;8.734;2023-08-08T05:27:18;97885.97;;;12.51;100.00
11448;BME280;43755;49.736;8.734;2023-08-08T05:29:21;97888.47;;;12.54;100.00
11448;BME280;43755;49.736;8.734;2023-08-08T05:31:22;97888.28;;;12.57;100.00
11448;BME280;43755;49.736;8.734;2023-08-08T05:33:23;97882.41;;;12.68;100.00
11448;BME280;43755;49.736;8.734;2023-08-08T05:35:25;97889.38;;;12.70;100.00
11448;BME280;43755;49.736;8.734;2023-08-08T05:37:26;97884.00;;;12.72;100.00
11448;BME280;43755;49.736;8.734;2023-08-08T05:39:28;97887.66;;;12.69;100.00
11448;BME280;43755;49.736;8.734;2023-08-08T05:41:29;97893.56;;;12.75;100.00
11448;BME280;43755;49.736;8.734;2023-08-08T05:43:31;97880.84;;;12.81;100.00
11448;BME280;43755;49.736;8.734;2023-08-08T05:45:33;97876.72;;;12.76;100.00
11448;BME280;43755;49.736;8.734;2023-08-08T05:47:35;97881.47;;;12.69;100.00
11448;BME280;43755;49.736;8.734;2023-08-08T05:49:38;97888.88;;;12.80;100.00
11448;BME280;43755;49.736;8.734;2023-08-08T05:51:39;97877.31;;;12.81;100.00
11448;BME280;43755;49.736;8.734;2023-08-08T05:53:41;97871.75;;;12.85;100.00
11448;BME280;43755;49.736;8.734;2023-08-08T05:55:42;97882.38;;;12.85;100.00
11448;BME280;43755;49.736;8.734;2023-08-08T05:57:44;97878.84;;;12.85;100.00
11448;BME280;43755;49.736;8.734;2023-08-08T05:59:45;97882.03;;;12.91;100.00
11448;BME280;43755;49.736;8.734;2023-08-08T06:01:48;97877.59;;;12.92;100.00
11448;BME280;43755;49.736;8.734;2023-08-08T06:03:50;97881.91;;;12.94;100.00
11448;BME280;43755;49.736;8.734;2023-08-08T06:05:53;97884.91;;;13.04;100.00
11448;BME280;43755;49.736;8.734;2023-08-08T06:07:54;97886.00;;;13.00;100.00
11448;BME280;43755;49.736;8.734;2023-08-08T06:09:56;97882.72;;;13.12;100.00
11448;BME280;43755;49.736;8.734;2023-08-08T06:11:57;97884.09;;;13.19;100.00
11448;BME280;43755;49.736;8.734;2023-08-08T06:13:58;97882.91;;;13.25;100.00
11448;BME280;43755;49.736;8.734;2023-08-08T06:16:00;97895.84;;;13.31;100.00
11448;BME280;43755;49.736;8.734;2023-08-08T06:18:07;97891.03;;;13.37;100.00
11448;BME280;43755;49.736;8.734;2023-08-08T06:20:09;97891.56;;;13.44;100.00
11448;BME280;43755;49.736;8.734;2023-08-08T06:22:11;97893.78;;;13.51;100.00
11448;BME280;43755;49.736;8.734;2023-08-08T06:24:12;97890.72;;;13.59;100.00
11448;BME280;43755;49.736;8.734;2023-08-08T06:26:13;97900.81;;;13.68;100.00
11448;BME280;43755;49.736;8.734;2023-08-08T06:28:15;97898.06;;;13.70;100.00
11448;BME280;43755;49.736;8.734;2023-08-08T06:30:16;97889.75;;;13.76;100.00
11448;BME280;43755;49.736;8.734;2023-08-08T06:32:18;97901.91;;;13.80;100.00
11448;BME280;43755;49.736;8.734;2023-08-08T06:34:21;97901.81;;;13.81;100.00
11448;BME280;43755;49.736;8.734;2023-08-08T06:36:22;97897.19;;;13.85;100.00
11448;BME280;43755;49.736;8.734;2023-08-08T06:38:23;97904.56;;;13.96;100.00
11448;BME280;43755;49.736;8.734;2023-08-08T06:40:25;97896.66;;;13.94;100.00
11448;BME280;43755;49.736;8.734;2023-08-08T06:42:27;97904.13;;;13.87;100.00
11448;BME280;43755;49.736;8.734;2023-08-08T06:44:28;97900.88;;;13.82;100.00
11448;BME280;43755;49.736;8.734;2023-08-08T06:46:30;97902.50;;;13.85;100.00
11448;BME280;43755;49.736;8.734;2023-08-08T06:48:31;97898.81;;;13.87;100.00
11448;BME280;43755;49.736;8.734;2023-08-08T06:50:34;97898.19;;;13.98;100.00
11448;BME280;43755;49.736;8.734;2023-08-08T06:52:34;97899.13;;;13.97;100.00
11448;BME280;43755;49.736;8.734;2023-08-08T06:54:36;97893.28;;;14.06;100.00
11448;BME280;43755;49.736;8.734;2023-08-08T06:56:37;97898.41;;;14.09;100.00
11448;BME280;43755;49.736;8.734;2023-08-08T06:58:38;97897.91;;;14.18;100.00
11448;BME280;43755;49.736;8.734;2023-08-08T07:00:40;97892.22;;;14.24;100.00
11448;BME280;43755;49.736;8.734;2023-08-08T07:02:41;97892.31;;;14.23;100.00
11448;BME280;43755;49.736;8.734;2023-08-08T07:04:43;97895.53;;;14.28;100.00
11448;BME280;43755;49.736;8.734;2023-08-08T07:06:46;97895.63;;;14.26;100.00
11448;BME280;43755;49.736;8.734;2023-08-08T07:08:47;97894.25;;;14.35;100.00
11448;BME280;43755;49.736;8.734;2023-08-08T07:10:48;97894.25;;;14.35;100.00
11448;BME280;43755;49.736;8.734;2023-08-08T07:12:50;97899.03;;;14.44;100.00
11448;BME280;43755;49.736;8.734;2023-08-08T07:14:51;97893.63;;;14.46;100.00
11448;BME280;43755;49.736;8.734;2023-08-08T07:16:53;97899.41;;;14.38;100.00
11448;BME280;43755;49.736;8.734;2023-08-08T07:18:54;97894.41;;;14.48;100.00
11448;BME280;43755;49.736;8.734;2023-08-08T07:20:56;97893.16;;;14.53;100.00
11448;BME280;43755;49.736;8.734;2023-08-08T07:22:58;97880.34;;;14.60;100.00
11448;BME280;43755;49.736;8.734;2023-08-08T07:25:00;97877.97;;;14.69;100.00
11448;BME280;43755;49.736;8.734;2023-08-08T07:27:03;97878.63;;;14.73;100.00
11448;BME280;43755;49.736;8.734;2023-08-08T07:29:04;97874.94;;;14.75;100.00
11448;BME280;43755;49.736;8.734;2023-08-08T07:31:06;97878.72;;;14.86;100.00
11448;BME280;43755;49.736;8.734;2023-08-08T07:33:07;97879.97;;;14.80;100.00
11448;BME280;43755;49.736;8.734;2023-08-08T07:35:09;97883.78;;;14.76;100.00
11448;BME280;43755;49.736;8.734;2023-08-08T07:37:11;97884.44;;;14.80;100.00
11448;BME280;43755;49.736;8.734;2023-08-08T07:39:13;97890.56;;;14.96;100.00
11448;BME280;43755;49.736;8.734;2023-08-08T07:41:15;97877.97;;;14.98;100.00
11448;BME280;43755;49.736;8.734;2023-08-08T07:43:18;97882.66;;;14.94;100.00
11448;BME280;43755;49.736;8.734;2023-08-08T07:45:20;97885.03;;;15.13;100.00
11448;BME280;43755;49.736;8.734;2023-08-08T07:47:22;97872.75;;;15.10;100.00
11448;BME280;43755;49.736;8.734;2023-08-08T07:49:23;97872.06;;;15.21;100.00
11448;BME280;43755;49.736;8.734;2023-08-08T07:51:25;97869.09;;;15.26;100.00
11448;BME280;43755;49.736;8.734;2023-08-08T07:53:26;97872.59;;;15.40;100.00
11448;BME280;43755;49.736;8.734;2023-08-08T07:55:29;97874.63;;;15.37;100.00
11448;BME280;43755;49.736;8.734;2023-08-08T07:57:32;97876.59;;;15.47;100.00
11448;BME280;43755;49.736;8.734;2023-08-08T07:59:34;97875.44;;;15.51;100.00
11448;BME280;43755;49.736;8.734;2023-08-08T08:01:36;97870.50;;;15.60;100.00
11448;BME280;43755;49.736;8.734;2023-08-08T08:03:38;97877.25;;;15.51;100.00
11448;BME280;43755;49.736;8.734;2023-08-08T08:05:39;97884.31;;;15.66;100.00
11448;BME280;43755;49.736;8.734;2023-08-08T08:07:41;97877.19;;;15.79;100.00
11448;BME280;43755;49.736;8.734;2023-08-08T08:09:42;97877.63;;;15.86;100.00
11448;BME280;43755;49.736;8.734;2023-08-08T08:11:45;97886.16;;;15.78;100.00
11448;BME280;43755;49.736;8.734;2023-08-08T08:13:46;97881.06;;;15.88;100.00
11448;BME280;43755;49.736;8.734;2023-08-08T08:15:48;97880.56;;;15.95;100.00
11448;BME280;43755;49.736;8.734;2023-08-08T08:17:49;97883.56;;;16.04;100.00
11448;BME280;43755;49.736;8.734;2023-08-08T08:19:51;97878.50;;;16.26;100.00
11448;BME280;43755;49.736;8.734;2023-08-08T08:21:52;97867.00;;;16.51;100.00
11448;BME280;43755;49.736;8.734;2023-08-08T08:23:54;97875.94;;;16.76;100.00
11448;BME280;43755;49.736;8.734;2023-08-08T08:25:55;97880.97;;;16.94;96.01
11448;BME280;43755;49.736;8.734;2023-08-08T08:27:58;97868.66;;;17.04;97.48
11448;BME280;43755;49.736;8.734;2023-08-08T08:29:59;97882.34;;;17.12;91.07
11448;BME280;43755;49.736;8.734;2023-08-08T08:32:01;97877.75;;;17.14;95.42
11448;BME280;43755;49.736;8.734;2023-08-08T08:34:02;97877.84;;;17.12;89.59
11448;BME280;43755;49.736;8.734;2023-08-08T08:36:04;97877.06;;;17.23;91.77
11448;BME280;43755;49.736;8.734;2023-08-08T08:38:06;97878.84;;;17.48;91.14
11448;BME280;43755;49.736;8.734;2023-08-08T08:40:08;97876.09;;;17.37;82.12
11448;BME280;43755;49.736;8.734;2023-08-08T08:42:11;97876.03;;;17.13;80.35
11448;BME280;43755;49.736;8.734;2023-08-08T08:44:16;97871.84;;;17.09;83.11
11448;BME280;43755;49.736;8.734;2023-08-08T08:46:20;97878.38;;;17.05;85.35
11448;BME280;43755;49.736;8.734;2023-08-08T08:48:21;97876.34;;;17.08;84.98
11448;BME280;43755;49.736;8.734;2023-08-08T08:50:26;97867.66;;;17.30;91.52
11448;BME280;43755;49.736;8.734;2023-08-08T08:52:28;97868.78;;;17.39;85.72
11448;BME280;43755;49.736;8.734;2023-08-08T08:54:30;97870.94;;;17.46;79.56
11448;BME280;43755;49.736;8.734;2023-08-08T08:56:31;97880.75;;;17.46;83.97
11448;BME280;43755;49.736;8.734;2023-08-08T08:58:33;97871.72;;;17.36;79.94
11448;BME280;43755;49.736;8.734;2023-08-08T09:00:36;97880.78;;;17.33;78.86
11448;BME280;43755;49.736;8.734;2023-08-08T09:02:38;97866.28;;;17.25;77.66
11448;BME280;43755;49.736;8.734;2023-08-08T09:04:39;97873.44;;;17.24;79.77
11448;BME280;43755;49.736;8.734;2023-08-08T09:06:41;97873.22;;;17.14;77.43
11448;BME280;43755;49.736;8.734;2023-08-08T09:08:43;97869.41;;;17.06;75.66
11448;BME280;43755;49.736;8.734;2023-08-08T09:10:47;97871.66;;;17.12;79.17
11448;BME280;43755;49.736;8.734;2023-08-08T09:12:47;97871.72;;;17.23;81.83
11448;BME280;43755;49.736;8.734;2023-08-08T09:14:54;97869.47;;;17.30;81.15
11448;BME280;43755;49.736;8.734;2023-08-08T09:16:57;97870.00;;;17.35;77.63
11448;BME280;43755;49.736;8.734;2023-08-08T09:18:58;97869.22;;;17.45;80.70
11448;BME280;43755;49.736;8.734;2023-08-08T09:21:01;97858.38;;;17.59;82.57
11448;BME280;43755;49.736;8.734;2023-08-08T09:23:02;97874.72;;;17.68;76.71
11448;BME280;43755;49.736;8.734;2023-08-08T09:25:05;97862.00;;;17.58;77.85
11448;BME280;43755;49.736;8.734;2023-08-08T09:27:06;97860.38;;;17.69;79.60
11448;BME280;43755;49.736;8.734;2023-08-08T09:29:08;97859.22;;;17.73;73.51
11448;BME280;43755;49.736;8.734;2023-08-08T09:31:11;97858.78;;;17.79;73.54
11448;BME280;43755;49.736;8.734;2023-08-08T09:33:14;97867.25;;;17.73;73.80
11448;BME280;43755;49.736;8.734;2023-08-08T09:35:15;97856.81;;;17.81;73.73
11448;BME280;43755;49.736;8.734;2023-08-08T09:37:17;97858.38;;;17.72;73.52
11448;BME280;43755;49.736;8.734;2023-08-08T09:39:20;97858.38;;;17.59;72.72
11448;BME280;43755;49.736;8.734;2023-08-08T09:41:22;97855.19;;;17.54;77.27
11448;BME280;43755;49.736;8.734;2023-08-08T09:43:24;97850.34;;;17.59;74.76
11448;BME280;43755;49.736;8.734;2023-08-08T09:45:25;97854.53;;;17.64;72.91
11448;BME280;43755;49.736;8.734;2023-08-08T09:47:27;97856.59;;;17.60;69.94
11448;BME280;43755;49.736;8.734;2023-08-08T09:49:32;97850.78;;;17.66;71.69
11448;BME280;43755;49.736;8.734;2023-08-08T09:51:36;97857.97;;;17.89;72.94
11448;BME280;43755;49.736;8.734;2023-08-08T09:53:38;97862.09;;;18.17;70.33
11448;BME280;43755;49.736;8.734;2023-08-08T09:55:40;97853.59;;;18.23;71.64
11448;BME280;43755;49.736;8.734;2023-08-08T09:57:41;97853.13;;;18.29;69.88
11448;BME280;43755;49.736;8.734;2023-08-08T09:59:45;97850.13;;;18.45;73.21
11448;BME280;43755;49.736;8.734;2023-08-08T10:01:47;97862.38;;;18.60;69.34
11448;BME280;43755;49.736;8.734;2023-08-08T10:03:51;97866.16;;;18.69;70.76
11448;BME280;43755;49.736;8.734;2023-08-08T10:05:54;97864.44;;;18.57;65.19
11448;BME280;43755;49.736;8.734;2023-08-08T10:07:56;97861.81;;;18.44;64.03
11448;BME280;43755;49.736;8.734;2023-08-08T10:09:58;97857.59;;;18.53;68.80
11448;BME280;43755;49.736;8.734;2023-08-08T10:11:59;97860.63;;;18.48;65.14
11448;BME280;43755;49.736;8.734;2023-08-08T10:14:02;97858.31;;;18.44;63.81
11448;BME280;43755;49.736;8.734;2023-08-08T10:16:07;97867.06;;;18.46;66.34
11448;BME280;43755;49.736;8.734;2023-08-08T10:18:09;97854.41;;;18.48;66.94
11448;BME280;43755;49.736;8.734;2023-08-08T10:20:11;97859.28;;;18.42;67.60
11448;BME280;43755;49.736;8.734;2023-08-08T10:22:14;97850.38;;;18.42;64.10
11448;BME280;43755;49.736;8.734;2023-08-08T10:24:20;97851.56;;;18.38;64.80
11448;BME280;43755;49.736;8.734;2023-08-08T10:26:21;97855.88;;;18.52;64.85
11448;BME280;43755;49.736;8.734;2023-08-08T10:28:22;97852.94;;;18.44;63.97
11448;BME280;43755;49.736;8.734;2023-08-08T10:30:23;97859.50;;;18.51;62.56
11448;BME280;43755;49.736;8.734;2023-08-08T10:32:24;97850.31;;;18.55;67.22
11448;BME280;43755;49.736;8.734;2023-08-08T10:34:27;97855.31;;;18.59;65.40
11448;BME280;43755;49.736;8.734;2023-08-08T10:36:44;97851.81;;;18.70;62.41
11448;BME280;43755;49.736;8.734;2023-08-08T10:38:49;97847.22;;;18.48;61.28
11448;BME280;43755;49.736;8.734;2023-08-08T10:40:58;97857.59;;;18.53;70.38